sensor_id;sensor_type;location;lat;lon;timestamp;pressure;altitude;pressure_sealevel;temperature;humidity
28008;BME280;15333;50.010;20.020;2023-04-21T00:02:40;98966.44;;;8.13;100.00
28008;BME280;15333;50.010;20.020;2023-04-21T00:05:41;98958.34;;;8.00;100.00
28008;BME280;15333;50.010;20.020;2023-04-21T00:08:42;98964.16;;;8.07;100.00
28008;BME280;15333;50.010;20.020;2023-04-21T00:11:43;98961.97;;;7.99;100.00
28008;BME280;15333;50.010;20.020;2023-04-21T00:14:44;98958.72;;;7.94;100.00
28008;BME280;15333;50.010;20.020;2023-04-21T00:17:45;98969.56;;;7.91;100.00
28008;BME280;15333;50.010;20.020;2023-04-21T00:20:46;98964.16;;;7.93;100.00
28008;BME280;15333;50.010;20.020;2023-04-21T00:23:47;98967.28;;;7.85;100.00
28008;BME280;15333;50.010;20.020;2023-04-21T00:26:50;98956.25;;;7.77;100.00
28008;BME280;15333;50.010;20.020;2023-04-21T00:29:50;98957.19;;;7.76;100.00
28008;BME280;15333;50.010;20.020;2023-04-21T00:32:52;98961.78;;;7.74;100.00
28008;BME280;15333;50.010;20.020;2023-04-21T00:35:52;98958.13;;;7.75;100.00
28008;BME280;15333;50.010;20.020;2023-04-21T00:38:54;98966.34;;;7.72;100.00
28008;BME280;15333;50.010;20.020;2023-04-21T00:41:55;98957.56;;;7.70;100.00
28008;BME280;15333;50.010;20.020;2023-04-21T00:44:57;98956.63;;;7.71;100.00
28008;BME280;15333;50.010;20.020;2023-04-21T00:47:57;98961.78;;;7.74;100.00
28008;BME280;15333;50.010;20.020;2023-04-21T00:50:59;98961.56;;;7.77;100.00
28008;BME280;15333;50.010;20.020;2023-04-21T00:54:02;98957.97;;;7.78;100.00
28008;BME280;15333;50.010;20.020;2023-04-21T00:57:04;98958.91;;;7.77;100.00
28008;BME280;15333;50.010;20.020;2023-04-21T01:00:07;98951.78;;;7.77;100.00
28008;BME280;15333;50.010;20.020;2023-04-21T01:03:08;98949.03;;;7.79;100.00
28008;BME280;15333;50.010;20.020;2023-04-21T01:06:09;98943.31;;;7.85;100.00
28008;BME280;15333;50.010;20.020;2023-04-21T01:09:11;98954.66;;;7.89;100.00
28008;BME280;15333;50.010;20.020;2023-04-21T01:12:12;98945.03;;;7.86;100.00
28008;BME280;15333;50.010;20.020;2023-04-21T01:15:15;98944.63;;;7.92;100.00
28008;BME280;15333;50.010;20.020;2023-04-21T01:18:16;98940.63;;;8.13;100.00
28008;BME280;15333;50.010;20.020;2023-04-21T01:21:19;98946.25;;;8.09;100.00
28008;BME280;15333;50.010;20.020;2023-04-21T01:24:20;98942.91;;;8.19;100.00
28008;BME280;15333;50.010;20.020;2023-04-21T01:27:21;98939.09;;;8.23;100.00
28008;BME280;15333;50.010;20.020;2023-04-21T01:30:22;98937.00;;;8.29;100.00
28008;BME280;15333;50.010;20.020;2023-04-21T01:33:23;98942.13;;;8.32;100.00
28008;BME280;15333;50.010;20.020;2023-04-21T01:36:24;98945.78;;;8.31;100.00
28008;BME280;15333;50.010;20.020;2023-04-21T01:39:26;98946.78;;;8.28;100.00
28008;BME280;15333;50.010;20.020;2023-04-21T01:42:29;98939.47;;;8.32;100.00
28008;BME280;15333;50.010;20.020;2023-04-21T01:45:32;98938.44;;;8.20;100.00
28008;BME280;15333;50.010;20.020;2023-04-21T01:48:33;98937.78;;;8.16;100.00
28008;BME280;15333;50.010;20.020;2023-04-21T01:51:36;98940.06;;;8.08;100.00
28008;BME280;15333;50.010;20.020;2023-04-21T01:54:37;98943.47;;;8.10;100.00
28008;BME280;15333;50.010;20.020;2023-04-21T01:57:38;98938.81;;;8.14;100.00
28008;BME280;15333;50.010;20.020;2023-04-21T02:00:39;98937.41;;;8.08;100.00
28008;BME280;15333;50.010;20.020;2023-04-21T02:03:40;98941.41;;;8.01;100.00
28008;BME280;15333;50.010;20.020;2023-04-21T02:06:42;98944.25;;;7.98;100.00
28008;BME280;15333;50.010;20.020;2023-04-21T02:09:43;98948.06;;;7.94;100.00
28008;BME280;15333;50.010;20.020;2023-04-21T02:12:43;98952.25;;;7.84;100.00
28008;BME280;15333;50.010;20.020;2023-04-21T02:15:45;98953.88;;;7.72;100.00
28008;BME280;15333;50.010;20.020;2023-04-21T02:18:46;98960.03;;;7.59;100.00
28008;BME280;15333;50.010;20.020;2023-04-21T02:21:48;98970.31;;;7.51;100.00
28008;BME280;15333;50.010;20.020;2023-04-21T02:24:49;98962.00;;;7.41;100.00
28008;BME280;15333;50.010;20.020;2023-04-21T02:27:50;98962.28;;;7.36;100.00
28008;BME280;15333;50.010;20.020;2023-04-21T02:30:51;98961.75;;;7.45;100.00
28008;BME280;15333;50.010;20.020;2023-04-21T02:33:52;98968.22;;;7.56;100.00
28008;BME280;15333;50.010;20.020;2023-04-21T02:36:54;98959.75;;;7.63;100.00
28008;BME280;15333;50.010;20.020;2023-04-21T02:39:55;98959.44;;;7.54;100.00
28008;BME280;15333;50.010;20.020;2023-04-21T02:42:55;98951.25;;;7.42;100.00
28008;BME280;15333;50.010;20.020;2023-04-21T02:45:56;98959.72;;;7.35;100.00
28008;BME280;15333;50.010;20.020;2023-04-21T02:48:57;98957.91;;;7.35;100.00
28008;BME280;15333;50.010;20.020;2023-04-21T02:51:58;98957.13;;;7.33;100.00
28008;BME280;15333;50.010;20.020;2023-04-21T02:54:59;98962.66;;;7.30;100.00
28008;BME280;15333;50.010;20.020;2023-04-21T02:58:00;98956.72;;;7.25;100.00
28008;BME280;15333;50.010;20.020;2023-04-21T03:01:01;98950.47;;;7.26;100.00
28008;BME280;15333;50.010;20.020;2023-04-21T03:04:03;98956.16;;;7.20;100.00
28008;BME280;15333;50.010;20.020;2023-04-21T03:07:04;98956.50;;;7.14;100.00
28008;BME280;15333;50.010;20.020;2023-04-21T03:10:06;98964.28;;;7.03;100.00
28008;BME280;15333;50.010;20.020;2023-04-21T03:13:07;98961.50;;;7.04;100.00
28008;BME280;15333;50.010;20.020;2023-04-21T03:16:08;98958.97;;;7.03;100.00
28008;BME280;15333;50.010;20.020;2023-04-21T03:19:09;98962.41;;;6.89;100.00
28008;BME280;15333;50.010;20.020;2023-04-21T03:22:10;98960.44;;;6.77;100.00
28008;BME280;15333;50.010;20.020;2023-04-21T03:25:11;98965.84;;;6.76;100.00
28008;BME280;15333;50.010;20.020;2023-04-21T03:28:12;98970.94;;;6.64;100.00
28008;BME280;15333;50.010;20.020;2023-04-21T03:31:13;98968.97;;;6.52;100.00
28008;BME280;15333;50.010;20.020;2023-04-21T03:34:14;98968.97;;;6.52;100.00
28008;BME280;15333;50.010;20.020;2023-04-21T03:37:15;98967.63;;;6.45;100.00
28008;BME280;15333;50.010;20.020;2023-04-21T03:40:16;98970.78;;;6.52;100.00
28008;BME280;15333;50.010;20.020;2023-04-21T03:43:18;98969.50;;;6.43;100.00
28008;BME280;15333;50.010;20.020;2023-04-21T03:46:20;98974.66;;;6.46;100.00
28008;BME280;15333;50.010;20.020;2023-04-21T03:49:21;98974.88;;;6.57;100.00
28008;BME280;15333;50.010;20.020;2023-04-21T03:52:23;98980.38;;;6.70;100.00
28008;BME280;15333;50.010;20.020;2023-04-21T03:55:23;98970.84;;;6.82;100.00
28008;BME280;15333;50.010;20.020;2023-04-21T03:58:25;98976.81;;;7.01;100.00
28008;BME280;15333;50.010;20.020;2023-04-21T04:01:25;98981.59;;;7.10;100.00
28008;BME280;15333;50.010;20.020;2023-04-21T04:04:26;98980.47;;;7.44;100.00
28008;BME280;15333;50.010;20.020;2023-04-21T04:07:27;98975.09;;;7.88;100.00
28008;BME280;15333;50.010;20.020;2023-04-21T04:10:28;98964.22;;;8.48;100.00
28008;BME280;15333;50.010;20.020;2023-04-21T04:13:29;98961.50;;;8.62;100.00
28008;BME280;15333;50.010;20.020;2023-04-21T04:16:30;98965.13;;;9.15;100.00
28008;BME280;15333;50.010;20.020;2023-04-21T04:19:31;98957.78;;;9.31;100.00
28008;BME280;15333;50.010;20.020;2023-04-21T04:22:32;98961.13;;;9.60;100.00
28008;BME280;15333;50.010;20.020;2023-04-21T04:25:33;98964.38;;;9.77;97.04
28008;BME280;15333;50.010;20.020;2023-04-21T04:28:34;98961.78;;;10.14;95.43
28008;BME280;15333;50.010;20.020;2023-04-21T04:31:35;98958.13;;;10.40;93.56
28008;BME280;15333;50.010;20.020;2023-04-21T04:34:36;98966.38;;;10.74;91.35
28008;BME280;15333;50.010;20.020;2023-04-21T04:37:37;98977.06;;;10.74;90.12
28008;BME280;15333;50.010;20.020;2023-04-21T04:40:39;98982.69;;;11.18;88.13
28008;BME280;15333;50.010;20.020;2023-04-21T04:43:39;98977.69;;;11.49;86.92
28008;BME280;15333;50.010;20.020;2023-04-21T04:46:41;98972.91;;;11.76;84.93
28008;BME280;15333;50.010;20.020;2023-04-21T04:49:42;98976.00;;;12.38;82.72
28008;BME280;15333;50.010;20.020;2023-04-21T04:52:43;98980.47;;;12.82;79.62
28008;BME280;15333;50.010;20.020;2023-04-21T04:55:46;98973.34;;;13.04;78.33
28008;BME280;15333;50.010;20.020;2023-04-21T04:58:47;98980.25;;;12.74;78.42
28008;BME280;15333;50.010;20.020;2023-04-21T05:01:48;98977.50;;;12.97;77.77
28008;BME280;15333;50.010;20.020;2023-04-21T05:04:49;98977.59;;;12.52;79.15
28008;BME280;15333;50.010;20.020;2023-04-21T05:07:50;98977.81;;;13.25;77.29
28008;BME280;15333;50.010;20.020;2023-04-21T05:10:51;98969.91;;;13.45;75.90
28008;BME280;15333;50.010;20.020;2023-04-21T05:13:52;98976.13;;;13.45;75.15
28008;BME280;15333;50.010;20.020;2023-04-21T05:16:53;98982.31;;;13.98;72.45
28008;BME280;15333;50.010;20.020;2023-04-21T05:19:54;98984.91;;;14.61;68.98
28008;BME280;15333;50.010;20.020;2023-04-21T05:22:55;98986.38;;;14.74;65.62
28008;BME280;15333;50.010;20.020;2023-04-21T05:25:55;98985.56;;;14.93;65.15
28008;BME280;15333;50.010;20.020;2023-04-21T05:28:56;98983.38;;;14.68;65.61
28008;BME280;15333;50.010;20.020;2023-04-21T05:31:58;98987.06;;;12.89;71.25
28008;BME280;15333;50.010;20.020;2023-04-21T05:34:59;98989.66;;;11.67;75.76
28008;BME280;15333;50.010;20.020;2023-04-21T05:38:00;98990.19;;;11.37;79.81
28008;BME280;15333;50.010;20.020;2023-04-21T05:41:02;98988.22;;;11.63;79.92
28008;BME280;15333;50.010;20.020;2023-04-21T05:44:03;98991.63;;;11.65;78.31
28008;BME280;15333;50.010;20.020;2023-04-21T05:47:04;98990.84;;;11.52;78.06
28008;BME280;15333;50.010;20.020;2023-04-21T05:50:06;98988.03;;;11.88;75.45
28008;BME280;15333;50.010;20.020;2023-04-21T05:53:07;98989.28;;;11.60;76.09
28008;BME280;15333;50.010;20.020;2023-04-21T05:56:08;98993.97;;;11.34;75.74
28008;BME280;15333;50.010;20.020;2023-04-21T05:59:09;98994.25;;;11.43;74.54
28008;BME280;15333;50.010;20.020;2023-04-21T06:02:11;98985.66;;;11.72;73.39
28008;BME280;15333;50.010;20.020;2023-04-21T06:05:12;98976.22;;;11.91;71.34
28008;BME280;15333;50.010;20.020;2023-04-21T06:08:13;98988.03;;;11.88;70.97
28008;BME280;15333;50.010;20.020;2023-04-21T06:11:14;98982.19;;;11.94;71.28
28008;BME280;15333;50.010;20.020;2023-04-21T06:14:14;98984.19;;;12.14;71.45
28008;BME280;15333;50.010;20.020;2023-04-21T06:17:16;98979.78;;;12.25;70.59
28008;BME280;15333;50.010;20.020;2023-04-21T06:20:17;98982.34;;;12.15;70.62
28008;BME280;15333;50.010;20.020;2023-04-21T06:23:19;98981.97;;;12.08;69.95
28008;BME280;15333;50.010;20.020;2023-04-21T06:26:20;98978.81;;;12.37;69.33
28008;BME280;15333;50.010;20.020;2023-04-21T06:29:21;98980.03;;;12.44;69.09
28008;BME280;15333;50.010;20.020;2023-04-21T06:32:22;98982.34;;;12.37;67.08
28008;BME280;15333;50.010;20.020;2023-04-21T06:35:23;98984.91;;;12.61;66.99
28008;BME280;15333;50.010;20.020;2023-04-21T06:38:24;98977.81;;;12.71;65.38
28008;BME280;15333;50.010;20.020;2023-04-21T06:41:25;98970.75;;;12.70;65.45
28008;BME280;15333;50.010;20.020;2023-04-21T06:44:26;98969.59;;;12.84;65.72
28008;BME280;15333;50.010;20.020;2023-04-21T06:47:27;98975.56;;;12.99;64.24
28008;BME280;15333;50.010;20.020;2023-04-21T06:50:27;98971.13;;;13.09;63.39
28008;BME280;15333;50.010;20.020;2023-04-21T06:53:29;98975.50;;;13.10;63.25
28008;BME280;15333;50.010;20.020;2023-04-21T06:56:29;98976.25;;;13.01;63.15
28008;BME280;15333;50.010;20.020;2023-04-21T06:59:31;98971.47;;;13.15;62.88
28008;BME280;15333;50.010;20.020;2023-04-21T07:02:32;98977.47;;;13.19;62.14
28008;BME280;15333;50.010;20.020;2023-04-21T07:05:33;98969.97;;;12.90;61.92
28008;BME280;15333;50.010;20.020;2023-04-21T07:08:34;98974.03;;;12.63;63.00
28008;BME280;15333;50.010;20.020;2023-04-21T07:11:35;98974.13;;;12.83;61.47
28008;BME280;15333;50.010;20.020;2023-04-21T07:14:35;98974.66;;;13.20;60.09
28008;BME280;15333;50.010;20.020;2023-04-21T07:17:36;98963.22;;;13.39;57.34
28008;BME280;15333;50.010;20.020;2023-04-21T07:20:37;98964.19;;;13.38;56.85
28008;BME280;15333;50.010;20.020;2023-04-21T07:23:38;98964.06;;;13.40;57.80
28008;BME280;15333;50.010;20.020;2023-04-21T07:26:39;98966.34;;;13.44;59.20
28008;BME280;15333;50.010;20.020;2023-04-21T07:29:40;98963.34;;;13.58;59.07
28008;BME280;15333;50.010;20.020;2023-04-21T07:32:41;98969.34;;;13.83;59.72
28008;BME280;15333;50.010;20.020;2023-04-21T07:35:42;98966.25;;;13.03;61.58
28008;BME280;15333;50.010;20.020;2023-04-21T07:38:43;98964.94;;;12.86;63.27
28008;BME280;15333;50.010;20.020;2023-04-21T07:41:44;98967.38;;;13.00;63.59
28008;BME280;15333;50.010;20.020;2023-04-21T07:44:44;98973.28;;;13.26;62.96
28008;BME280;15333;50.010;20.020;2023-04-21T07:47:46;98959.28;;;13.43;62.66
28008;BME280;15333;50.010;20.020;2023-04-21T07:50:46;98955.78;;;13.94;61.81
28008;BME280;15333;50.010;20.020;2023-04-21T07:53:48;98961.56;;;14.10;60.91
28008;BME280;15333;50.010;20.020;2023-04-21T07:56:49;98962.22;;;14.02;61.45
28008;BME280;15333;50.010;20.020;2023-04-21T07:59:50;98954.88;;;14.35;60.23
28008;BME280;15333;50.010;20.020;2023-04-21T08:02:51;98960.13;;;14.36;59.29
28008;BME280;15333;50.010;20.020;2023-04-21T08:05:52;98952.00;;;14.57;59.19
28008;BME280;15333;50.010;20.020;2023-04-21T08:08:53;98953.38;;;14.42;59.05
28008;BME280;15333;50.010;20.020;2023-04-21T08:11:55;98958.25;;;14.58;59.34
28008;BME280;15333;50.010;20.020;2023-04-21T08:14:57;98963.91;;;14.55;60.17
28008;BME280;15333;50.010;20.020;2023-04-21T08:17:58;98946.75;;;14.25;58.89
28008;BME280;15333;50.010;20.020;2023-04-21T08:20:59;98953.31;;;14.72;59.89
28008;BME280;15333;50.010;20.020;2023-04-21T08:24:00;98947.25;;;14.80;57.39
28008;BME280;15333;50.010;20.020;2023-04-21T08:27:00;98953.50;;;14.90;58.30
28008;BME280;15333;50.010;20.020;2023-04-21T08:30:02;98946.44;;;15.08;58.21
28008;BME280;15333;50.010;20.020;2023-04-21T08:33:03;98947.56;;;15.15;57.49
28008;BME280;15333;50.010;20.020;2023-04-21T08:36:04;98947.56;;;15.15;57.51
28008;BME280;15333;50.010;20.020;2023-04-21T08:39:05;98943.88;;;15.36;57.01
28008;BME280;15333;50.010;20.020;2023-04-21T08:42:07;98943.91;;;15.74;56.49
28008;BME280;15333;50.010;20.020;2023-04-21T08:45:09;98939.34;;;15.84;55.46
28008;BME280;15333;50.010;20.020;2023-04-21T08:48:12;98936.19;;;15.98;55.51
28008;BME280;15333;50.010;20.020;2023-04-21T08:51:22;98940.72;;;15.98;53.29
28008;BME280;15333;50.010;20.020;2023-04-21T08:54:23;98936.59;;;15.94;54.20
28008;BME280;15333;50.010;20.020;2023-04-21T08:57:24;98941.03;;;15.85;54.63
28008;BME280;15333;50.010;20.020;2023-04-21T09:00:25;98939.94;;;15.69;54.36
28008;BME280;15333;50.010;20.020;2023-04-21T09:03:27;98935.22;;;15.42;56.27
28008;BME280;15333;50.010;20.020;2023-04-21T09:06:39;98929.81;;;15.71;54.32
28008;BME280;15333;50.010;20.020;2023-04-21T09:09:55;98920.00;;;15.79;53.59
28008;BME280;15333;50.010;20.020;2023-04-21T09:12:58;98923.69;;;15.88;53.26
28008;BME280;15333;50.010;20.020;2023-04-21T09:16:00;98922.03;;;15.77;52.81
28008;BME280;15333;50.010;20.020;2023-04-21T09:19:01;98928.25;;;15.87;52.87
28008;BME280;15333;50.010;20.020;2023-04-21T09:22:02;98924.47;;;16.08;47.88
28008;BME280;15333;50.010;20.020;2023-04-21T09:25:04;98914.28;;;16.01;49.45
28008;BME280;15333;50.010;20.020;2023-04-21T09:28:27;98910.97;;;16.08;49.51
28008;BME280;15333;50.010;20.020;2023-04-21T09:31:34;98909.72;;;16.12;50.38
28008;BME280;15333;50.010;20.020;2023-04-21T09:34:40;98919.06;;;16.17;50.83
28008;BME280;15333;50.010;20.020;2023-04-21T09:37:43;98913.00;;;16.05;48.39
28008;BME280;15333;50.010;20.020;2023-04-21T09:40:44;98911.97;;;16.06;50.64
28008;BME280;15333;50.010;20.020;2023-04-21T09:43:45;98907.53;;;16.15;46.58
28008;BME280;15333;50.010;20.020;2023-04-21T09:46:47;98909.03;;;16.27;45.93
28008;BME280;15333;50.010;20.020;2023-04-21T09:49:53;98913.88;;;16.33;42.86
28008;BME280;15333;50.010;20.020;2023-04-21T09:52:55;98901.72;;;16.20;41.82
28008;BME280;15333;50.010;20.020;2023-04-21T09:55:57;98901.41;;;16.23;42.01
28008;BME280;15333;50.010;20.020;2023-04-21T09:59:00;98892.81;;;16.37;40.21
28008;BME280;15333;50.010;20.020;2023-04-21T10:02:06;98896.94;;;16.68;42.78
28008;BME280;15333;50.010;20.020;2023-04-21T10:05:08;98890.22;;;16.72;37.77
28008;BME280;15333;50.010;20.020;2023-04-21T10:08:10;98893.31;;;16.50;39.48
28008;BME280;15333;50.010;20.020;2023-04-21T10:11:12;98891.56;;;16.59;36.93
28008;BME280;15333;50.010;20.020;2023-04-21T10:14:13;98897.66;;;16.88;37.05
28008;BME280;15333;50.010;20.020;2023-04-21T10:17:14;98887.06;;;17.12;37.81
28008;BME280;15333;50.010;20.020;2023-04-21T10:20:16;98886.00;;;17.23;39.53
28008;BME280;15333;50.010;20.020;2023-04-21T10:26:37;98881.25;;;17.43;34.14
28008;BME280;15333;50.010;20.020;2023-04-21T10:29:38;98885.44;;;17.19;33.48
28008;BME280;15333;50.010;20.020;2023-04-21T10:32:40;98896.34;;;17.10;35.32
28008;BME280;15333;50.010;20.020;2023-04-21T10:36:00;98882.28;;;16.89;35.27
28008;BME280;15333;50.010;20.020;2023-04-21T10:39:02;98873.66;;;17.03;35.80
28008;BME280;15333;50.010;20.020;2023-04-21T10:45:13;98874.66;;;17.02;34.63
28008;BME280;15333;50.010;20.020;2023-04-21T10:48:21;98868.69;;;17.16;34.65
28008;BME280;15333;50.010;20.020;2023-04-21T10:51:22;98869.13;;;17.29;34.91
28008;BME280;15333;50.010;20.020;2023-04-21T10:54:42;98863.44;;;17.32;34.80
28008;BME280;15333;50.010;20.020;2023-04-21T10:57:45;98855.91;;;17.62;34.81
28008;BME280;15333;50.010;20.020;2023-04-21T11:00:46;98868.00;;;17.57;34.10
28008;BME280;15333;50.010;20.020;2023-04-21T11:03:53;98859.25;;;17.20;34.27
28008;BME280;15333;50.010;20.020;2023-04-21T11:07:10;98862.47;;;17.41;34.67
28008;BME280;15333;50.010;20.020;2023-04-21T11:10:11;98854.88;;;17.63;33.70
28008;BME280;15333;50.010;20.020;2023-04-21T11:13:12;98857.97;;;17.68;34.12
28008;BME280;15333;50.010;20.020;2023-04-21T11:16:13;98842.66;;;17.58;34.14
28008;BME280;15333;50.010;20.020;2023-04-21T11:19:14;98856.69;;;18.14;34.11
28008;BME280;15333;50.010;20.020;2023-04-21T11:22:16;98842.38;;;18.29;34.67
28008;BME280;15333;50.010;20.020;2023-04-21T11:25:17;98846.06;;;18.20;35.32
28008;BME280;15333;50.010;20.020;2023-04-21T11:28:22;98850.72;;;17.76;34.13
28008;BME280;15333;50.010;20.020;2023-04-21T11:31:27;98842.28;;;17.53;35.28
28008;BME280;15333;50.010;20.020;2023-04-21T11:34:28;98847.19;;;17.32;35.62
28008;BME280;15333;50.010;20.020;2023-04-21T11:37:29;98842.66;;;17.15;36.57
28008;BME280;15333;50.010;20.020;2023-04-21T11:40:44;98844.16;;;17.35;36.50
28008;BME280;15333;50.010;20.020;2023-04-21T11:43:45;98832.66;;;17.33;37.63
28008;BME280;15333;50.010;20.020;2023-04-21T11:46:46;98831.75;;;17.68;36.84
28008;BME280;15333;50.010;20.020;2023-04-21T11:49:48;98822.03;;;17.91;36.09
28008;BME280;15333;50.010;20.020;2023-04-21T11:52:50;98824.94;;;17.90;36.44
28008;BME280;15333;50.010;20.020;2023-04-21T11:55:53;98818.88;;;17.44;35.77
28008;BME280;15333;50.010;20.020;2023-04-21T11:58:56;98826.47;;;17.23;36.44
28008;BME280;15333;50.010;20.020;2023-04-21T12:01:57;98830.19;;;17.22;37.03
28008;BME280;15333;50.010;20.020;2023-04-21T12:08:12;98825.97;;;16.66;36.68
28008;BME280;15333;50.010;20.020;2023-04-21T12:11:17;98825.84;;;16.58;37.17
28008;BME280;15333;50.010;20.020;2023-04-21T12:14:22;98815.00;;;16.68;36.36
28008;BME280;15333;50.010;20.020;2023-04-21T12:17:23;98815.25;;;16.74;36.65
28008;BME280;15333;50.010;20.020;2023-04-21T12:20:27;98810.84;;;16.73;36.32
28008;BME280;15333;50.010;20.020;2023-04-21T12:23:29;98815.78;;;16.96;35.81
28008;BME280;15333;50.010;20.020;2023-04-21T12:26:30;98799.94;;;17.01;34.82
28008;BME280;15333;50.010;20.020;2023-04-21T12:29:31;98810.44;;;17.04;33.58
28008;BME280;15333;50.010;20.020;2023-04-21T12:32:35;98804.06;;;17.13;34.03
28008;BME280;15333;50.010;20.020;2023-04-21T12:35:36;98795.72;;;17.24;34.18
28008;BME280;15333;50.010;20.020;2023-04-21T12:38:37;98783.19;;;17.49;32.68
28008;BME280;15333;50.010;20.020;2023-04-21T12:41:39;98786.50;;;17.60;32.80
28008;BME280;15333;50.010;20.020;2023-04-21T12:44:40;98786.38;;;17.96;32.56
28008;BME280;15333;50.010;20.020;2023-04-21T12:47:41;98777.66;;;18.26;32.04
28008;BME280;15333;50.010;20.020;2023-04-21T12:50:42;98784.84;;;17.93;32.68
28008;BME280;15333;50.010;20.020;2023-04-21T12:53:43;98779.81;;;17.73;32.92
28008;BME280;15333;50.010;20.020;2023-04-21T12:56:45;98779.94;;;17.37;32.69
28008;BME280;15333;50.010;20.020;2023-04-21T12:59:47;98785.09;;;17.05;32.86
28008;BME280;15333;50.010;20.020;2023-04-21T13:02:47;98780.63;;;16.96;32.76
28008;BME280;15333;50.010;20.020;2023-04-21T13:05:48;98777.28;;;17.02;32.17
28008;BME280;15333;50.010;20.020;2023-04-21T13:08:49;98777.09;;;17.21;31.67
28008;BME280;15333;50.010;20.020;2023-04-21T13:11:50;98772.44;;;16.88;31.35
28008;BME280;15333;50.010;20.020;2023-04-21T13:14:51;98769.63;;;17.15;31.56
28008;BME280;15333;50.010;20.020;2023-04-21T13:17:52;98766.13;;;17.48;32.33
28008;BME280;15333;50.010;20.020;2023-04-21T13:20:53;98764.59;;;17.46;32.27
28008;BME280;15333;50.010;20.020;2023-04-21T13:23:54;98760.97;;;17.37;32.11
28008;BME280;15333;50.010;20.020;2023-04-21T13:26:57;98758.81;;;17.15;32.03
28008;BME280;15333;50.010;20.020;2023-04-21T13:29:59;98753.16;;;17.26;32.74
28008;BME280;15333;50.010;20.020;2023-04-21T13:32:59;98751.06;;;17.46;31.84
28008;BME280;15333;50.010;20.020;2023-04-21T13:36:01;98745.75;;;17.62;32.61
28008;BME280;15333;50.010;20.020;2023-04-21T13:39:03;98740.41;;;17.78;31.92
28008;BME280;15333;50.010;20.020;2023-04-21T13:42:05;98742.69;;;17.99;32.11
28008;BME280;15333;50.010;20.020;2023-04-21T13:45:06;98746.13;;;17.41;31.82
28008;BME280;15333;50.010;20.020;2023-04-21T13:48:08;98742.34;;;17.34;32.36
28008;BME280;15333;50.010;20.020;2023-04-21T13:51:08;98741.00;;;17.30;31.85
28008;BME280;15333;50.010;20.020;2023-04-21T13:54:10;98736.78;;;17.10;32.41
28008;BME280;15333;50.010;20.020;2023-04-21T13:57:10;98734.97;;;16.93;32.61
28008;BME280;15333;50.010;20.020;2023-04-21T14:00:12;98738.44;;;17.03;32.68
28008;BME280;15333;50.010;20.020;2023-04-21T14:03:13;98731.72;;;17.33;31.20
28008;BME280;15333;50.010;20.020;2023-04-21T14:06:14;98732.28;;;17.44;31.63
28008;BME280;15333;50.010;20.020;2023-04-21T14:09:16;98729.72;;;17.43;31.23
28008;BME280;15333;50.010;20.020;2023-04-21T14:12:17;98720.25;;;17.39;31.67
28008;BME280;15333;50.010;20.020;2023-04-21T14:15:18;98723.91;;;17.30;30.60
28008;BME280;15333;50.010;20.020;2023-04-21T14:18:19;98732.25;;;16.93;30.32
28008;BME280;15333;50.010;20.020;2023-04-21T14:21:20;98724.59;;;17.06;29.91
28008;BME280;15333;50.010;20.020;2023-04-21T14:24:21;98724.28;;;17.09;30.61
28008;BME280;15333;50.010;20.020;2023-04-21T14:27:22;98730.69;;;17.08;29.67
28008;BME280;15333;50.010;20.020;2023-04-21T14:30:23;98716.88;;;17.11;29.96
28008;BME280;15333;50.010;20.020;2023-04-21T14:33:23;98714.81;;;17.05;30.12
28008;BME280;15333;50.010;20.020;2023-04-21T14:36:25;98702.06;;;17.23;30.30
28008;BME280;15333;50.010;20.020;2023-04-21T14:39:27;98713.81;;;17.14;29.58
28008;BME280;15333;50.010;20.020;2023-04-21T14:42:28;98708.22;;;17.07;29.70
28008;BME280;15333;50.010;20.020;2023-04-21T14:45:29;98706.78;;;17.21;30.02
28008;BME280;15333;50.010;20.020;2023-04-21T14:48:30;98697.09;;;17.10;29.72
28008;BME280;15333;50.010;20.020;2023-04-21T14:51:31;98703.22;;;16.95;29.15
28008;BME280;15333;50.010;20.020;2023-04-21T14:54:32;98694.75;;;16.90;29.95
28008;BME280;15333;50.010;20.020;2023-04-21T14:57:33;98701.00;;;16.90;29.34
28008;BME280;15333;50.010;20.020;2023-04-21T15:00:34;98692.09;;;16.98;29.66
28008;BME280;15333;50.010;20.020;2023-04-21T15:03:36;98697.72;;;17.04;28.87
28008;BME280;15333;50.010;20.020;2023-04-21T15:06:37;98688.59;;;17.05;29.35
28008;BME280;15333;50.010;20.020;2023-04-21T15:09:38;98686.94;;;17.12;29.58
28008;BME280;15333;50.010;20.020;2023-04-21T15:12:39;98687.13;;;17.11;30.12
28008;BME280;15333;50.010;20.020;2023-04-21T15:15:41;98695.44;;;17.17;31.03
28008;BME280;15333;50.010;20.020;2023-04-21T15:18:42;98700.94;;;17.08;31.43
28008;BME280;15333;50.010;20.020;2023-04-21T15:21:42;98687.75;;;17.05;32.07
28008;BME280;15333;50.010;20.020;2023-04-21T15:24:44;98690.13;;;17.08;31.31
28008;BME280;15333;50.010;20.020;2023-04-21T15:27:45;98682.00;;;17.08;32.42
28008;BME280;15333;50.010;20.020;2023-04-21T15:30:46;98678.84;;;16.87;31.34
28008;BME280;15333;50.010;20.020;2023-04-21T15:33:47;98684.25;;;16.87;31.39
28008;BME280;15333;50.010;20.020;2023-04-21T15:36:48;98676.75;;;16.80;31.95
28008;BME280;15333;50.010;20.020;2023-04-21T15:39:48;98683.81;;;16.73;31.87
28008;BME280;15333;50.010;20.020;2023-04-21T15:42:50;98675.84;;;16.72;32.42
28008;BME280;15333;50.010;20.020;2023-04-21T15:45:50;98679.75;;;16.69;32.05
28008;BME280;15333;50.010;20.020;2023-04-21T15:48:51;98675.97;;;16.62;32.49
28008;BME280;15333;50.010;20.020;2023-04-21T15:51:52;98675.06;;;16.79;32.76
28008;BME280;15333;50.010;20.020;2023-04-21T15:54:53;98678.09;;;16.76;32.54
28008;BME280;15333;50.010;20.020;2023-04-21T15:57:54;98673.84;;;16.74;32.92
28008;BME280;15333;50.010;20.020;2023-04-21T16:00:55;98667.91;;;16.70;32.80